Policoro Saline Flying Field

IT-0447 · 巴斯利卡塔, 意大利

使用的METAR站距离机场64 km。
罗盘
风向 的 风向 310° Policoro Saline Flying Field 9/27
风: 3 kt, 1 beaufort

2 kt

2 kt
改变
0 ft 1.000 2.000 3.000 4.000 5.000
CAVOK
METAR LIBV 172255Z 31003KT CAVOK 25/12 Q1016

METAR Policoro Saline Flying Field - IT-0447

Policoro Saline Flying Field是,意大利中的小机场。 该机场位于纬度40,21585和经度16,73173。 该机场有一条跑道: 9/27. 这个机场没有ICAO代码,我们使用IT-0447作为参考。 机场在Brindisi FIR中。

该航空气象观测是针对Gioia Del Colle Air Base在2024年7月18日 00:55, 当地时间进行的。

机场观察

风向为310°,速度为3 kt。

天气为CAVOK。这意味着在5.000 ft或MSA(最低安全高度)以下(以较高者为准)以下没有云。这也意味着没有观测到积雨云或高耸的积云,可见度为10 km 或者更多或更高。此外,不会有雾,降雨或其他重要天气。

温度和风寒是25 °C。 露点为12 °C,相对湿度为44%。 海平面上的气压为1016 hPa (QNH)。

白天

今天,太阳从05:38升起,在20:20降落。 这适用于Policoro Saline Flying Field,世界夏令时可能有所不同。 当地时间与世界标准时间之间的时差为+2 小时。 夏令时目前正在进行中。

公司介绍

我们没有关于这个机场的公司信息。

体会

到Vliegles.nl去找飞行课程,跳伞和其他飞行体验。 浏览页面,了解Policoro Saline Flying Field附近所有可用的活动。 你也可以使用搜索功能来寻找你所在地附近的特定飞行课程、跳伞或其他飞行体验。

跑道

Id 标题 侧风 逆风 侧风 %
9/27 094°-274° 2 kt 2 kt 59 %

逆风成分最大的方向会被突出显示,并用于横风计算。 这并不一定意味着这个方向在使用。

温度 & 天气

温度 25 °C
露点 12 °C
相对湿度 44%
Kp-index 0 (0-9)

白天

日出
05:35 (4:06)
中午
12:58
日落
20:21

小工具

你想在你的网站上有一个关于Policoro Saline Flying Field的当前航空天气(METAR)的小部件吗?

显示HTML代码
报告变更